createdAt,value
2018-05-10T00:03:00.942Z,21.79
2018-05-10T00:08:02.271Z,21.78
2018-05-10T00:13:03.578Z,21.72
2018-05-10T00:18:05.641Z,21.90
2018-05-10T00:23:06.933Z,21.96
2018-05-10T00:28:08.249Z,21.92
2018-05-10T00:33:10.294Z,21.87
2018-05-10T00:38:11.602Z,21.47
2018-05-10T00:43:12.947Z,21.20
2018-05-10T00:48:14.992Z,21.08
2018-05-10T00:53:16.297Z,20.79
2018-05-10T00:58:17.602Z,20.74
2018-05-10T01:03:18.930Z,20.89
2018-05-10T01:08:20.231Z,20.96
2018-05-10T01:13:21.573Z,21.06
2018-05-10T01:18:22.894Z,20.93
2018-05-10T01:23:24.203Z,20.83
2018-05-10T01:28:25.518Z,20.86
2018-05-10T01:33:26.826Z,20.99
2018-05-10T01:38:28.134Z,20.92
2018-05-10T01:43:30.180Z,20.77
2018-05-10T01:48:31.474Z,20.79
2018-05-10T01:53:32.797Z,20.58
2018-05-10T01:58:34.093Z,20.45
2018-05-10T02:03:35.434Z,20.36
2018-05-10T02:08:36.757Z,20.43
2018-05-10T02:13:38.062Z,20.54
2018-05-10T02:18:39.574Z,20.25
2018-05-10T02:23:41.606Z,19.99
2018-05-10T02:28:43.809Z,20.04
2018-05-10T02:33:45.113Z,20.11
2018-05-10T02:38:46.446Z,20.20
2018-05-10T02:43:47.781Z,20.10
2018-05-10T02:48:49.090Z,20.00
2018-05-10T02:53:50.402Z,19.83
2018-05-10T02:58:51.698Z,19.56
2018-05-10T03:03:53.028Z,19.18
2018-05-10T03:08:54.323Z,19.07
2018-05-10T03:13:55.618Z,19.11
2018-05-10T03:18:56.929Z,19.33
2018-05-10T03:23:58.238Z,19.54
2018-05-10T03:28:59.530Z,19.77
2018-05-10T03:34:00.874Z,19.77
2018-05-10T03:39:02.222Z,19.62
2018-05-10T03:44:03.539Z,19.57
2018-05-10T03:49:04.854Z,19.57
2018-05-10T03:54:06.149Z,19.51
2018-05-10T03:59:07.542Z,19.32
2018-05-10T04:04:32.087Z,19.04
2018-05-10T04:09:52.070Z,19.23
2018-05-10T04:14:54.188Z,19.26
2018-05-10T04:19:55.478Z,19.41
2018-05-10T04:24:56.769Z,19.52
2018-05-10T04:29:58.069Z,19.62
2018-05-10T04:34:59.537Z,19.73
2018-05-10T04:40:00.834Z,19.77
2018-05-10T04:45:02.177Z,19.93
2018-05-10T04:50:03.502Z,19.98
2018-05-10T04:55:04.811Z,20.22
2018-05-10T05:00:06.102Z,20.47
2018-05-10T05:05:07.421Z,20.65
2018-05-10T05:10:08.819Z,20.81
2018-05-10T05:15:10.247Z,20.96
2018-05-10T05:20:11.582Z,21.19
2018-05-10T05:25:12.907Z,21.43
2018-05-10T05:30:15.017Z,21.64
2018-05-10T05:35:16.402Z,21.83
2018-05-10T05:40:18.714Z,22.07
2018-05-10T05:45:20.016Z,22.30
2018-05-10T05:50:22.062Z,22.41
2018-05-10T05:55:23.371Z,22.68
2018-05-10T06:00:24.706Z,23.07
2018-05-10T06:05:26.754Z,23.36
2018-05-10T06:10:28.074Z,23.60
2018-05-10T06:15:30.274Z,23.87
2018-05-10T06:20:32.300Z,24.04
2018-05-10T06:25:33.619Z,24.08
2018-05-10T06:30:35.002Z,24.22
2018-05-10T06:35:36.326Z,24.14
2018-05-10T06:40:37.652Z,24.15
2018-05-10T06:45:38.961Z,23.97
2018-05-10T06:50:41.040Z,23.93
2018-05-10T06:55:42.955Z,23.96
2018-05-10T07:00:44.277Z,23.77
2018-05-10T07:05:45.594Z,23.96
2018-05-10T07:10:46.943Z,24.19
2018-05-10T07:15:49.395Z,24.24
2018-05-10T07:20:50.731Z,24.20
2018-05-10T07:25:52.050Z,24.40
2018-05-10T07:30:53.400Z,24.34
2018-05-10T07:35:54.697Z,24.42
2018-05-10T07:40:56.005Z,24.67
2018-05-10T07:45:58.070Z,24.71
2018-05-10T07:50:59.383Z,24.91
2018-05-10T07:56:01.671Z,24.97
2018-05-10T08:01:03.070Z,25.10
2018-05-10T08:06:11.500Z,25.11
2018-05-10T08:11:13.215Z,25.62
2018-05-10T08:16:14.536Z,25.63
2018-05-10T08:21:16.600Z,25.42
2018-05-10T08:26:17.919Z,25.11
2018-05-10T08:31:19.252Z,25.22
2018-05-10T08:36:20.549Z,25.58
2018-05-10T08:41:21.870Z,25.74
2018-05-10T08:46:23.174Z,25.65
2018-05-10T08:51:24.476Z,25.64
2018-05-10T08:56:25.780Z,25.51
2018-05-10T09:01:27.111Z,26.00
2018-05-10T09:06:28.438Z,25.98
2018-05-10T09:11:30.490Z,26.05
2018-05-10T09:16:31.794Z,26.27
2018-05-10T09:21:33.094Z,26.31
2018-05-10T09:26:34.426Z,26.21
2018-05-10T09:31:35.782Z,26.13
2018-05-10T09:36:37.054Z,26.10
2018-05-10T09:41:38.364Z,26.15
2018-05-10T09:46:39.653Z,26.27
2018-05-10T09:51:41.001Z,26.36
2018-05-10T09:56:42.319Z,26.56
2018-05-10T10:01:43.645Z,26.54
2018-05-10T10:06:45.691Z,26.79
2018-05-10T10:11:47.000Z,26.95
2018-05-10T10:16:48.322Z,27.07
2018-05-10T10:21:50.376Z,27.24
2018-05-10T10:26:51.703Z,27.76
2018-05-10T10:31:53.114Z,28.15
2018-05-10T10:36:55.170Z,28.03
2018-05-10T10:41:56.489Z,28.31
2018-05-10T10:46:57.823Z,28.64
2018-05-10T10:51:59.195Z,28.54
2018-05-10T10:57:00.627Z,28.48
2018-05-10T11:02:02.110Z,28.34
2018-05-10T11:07:03.589Z,27.55
2018-05-10T11:12:05.683Z,27.19
2018-05-10T11:17:07.711Z,26.92
2018-05-10T11:22:09.669Z,26.91
2018-05-10T11:27:12.156Z,26.86
2018-05-10T11:32:14.161Z,26.62
2018-05-10T11:37:15.749Z,26.78
2018-05-10T11:42:17.145Z,26.52
2018-05-10T11:47:19.098Z,26.57
2018-05-10T11:52:20.434Z,26.17
2018-05-10T11:57:22.468Z,26.14
2018-05-10T12:02:23.959Z,26.32
2018-05-10T12:07:25.884Z,26.14
2018-05-10T12:12:27.257Z,25.73
2018-05-10T12:17:29.176Z,25.63
2018-05-10T12:22:30.615Z,25.75
2018-05-10T12:27:32.395Z,25.88
2018-05-10T12:32:34.685Z,25.34
2018-05-10T12:37:36.014Z,24.90
2018-05-10T12:42:37.697Z,24.41
2018-05-10T12:47:39.067Z,24.23
2018-05-10T12:52:41.140Z,24.11
2018-05-10T12:57:42.478Z,23.73
2018-05-10T13:02:44.646Z,23.05
2018-05-10T13:07:45.897Z,22.99
2018-05-10T13:12:47.234Z,22.99
2018-05-10T13:17:48.610Z,22.82
2018-05-10T13:22:49.923Z,22.59
2018-05-10T13:27:51.395Z,22.52
2018-05-10T13:32:53.033Z,22.47
2018-05-10T13:37:54.498Z,22.51
2018-05-10T13:42:56.223Z,22.95
2018-05-10T13:47:57.836Z,23.13
2018-05-10T13:52:59.402Z,23.42
2018-05-10T13:58:00.859Z,23.75
2018-05-10T14:03:02.427Z,24.16
2018-05-10T14:08:03.946Z,24.24
2018-05-10T14:13:05.410Z,24.07
2018-05-10T14:18:06.884Z,23.92
2018-05-10T14:23:08.410Z,24.19
2018-05-10T14:28:09.958Z,23.96
2018-05-10T14:33:12.887Z,23.90
2018-05-10T14:38:14.983Z,23.47
2018-05-10T14:43:16.308Z,23.04
2018-05-10T14:48:17.688Z,22.23
2018-05-10T14:53:19.754Z,21.78
2018-05-10T14:58:21.087Z,21.57
2018-05-10T15:03:23.205Z,21.53
2018-05-10T15:08:24.541Z,21.12
2018-05-10T15:13:25.876Z,21.00
2018-05-10T15:18:27.185Z,21.00
2018-05-10T15:23:28.494Z,21.12
2018-05-10T15:28:29.849Z,21.15
2018-05-10T15:33:31.174Z,21.35
2018-05-10T15:38:33.276Z,21.68
2018-05-10T15:43:34.846Z,21.23
2018-05-10T15:48:37.014Z,21.19
2018-05-10T15:53:38.337Z,20.99
2018-05-10T15:58:39.684Z,20.74
2018-05-10T16:03:41.039Z,20.71
2018-05-10T16:08:42.362Z,20.71
2018-05-10T16:13:44.542Z,20.46
2018-05-10T16:18:45.954Z,20.55
2018-05-10T16:23:48.121Z,20.83
2018-05-10T16:28:49.827Z,20.96
2018-05-10T16:33:51.319Z,20.89
2018-05-10T16:38:52.659Z,20.71
2018-05-10T16:43:54.070Z,20.45
2018-05-10T16:48:56.139Z,20.51
2018-05-10T16:53:57.458Z,20.23
2018-05-10T16:58:59.158Z,20.11
2018-05-10T17:04:00.496Z,19.76
2018-05-10T17:09:01.995Z,19.82
2018-05-10T17:14:04.472Z,19.71
2018-05-10T17:19:06.390Z,19.55
2018-05-10T17:24:07.746Z,19.56
2018-05-10T17:29:09.476Z,19.51
2018-05-10T17:34:11.554Z,19.67
2018-05-10T17:39:13.421Z,19.76
2018-05-10T17:44:14.919Z,19.54
2018-05-10T17:49:16.285Z,19.73
2018-05-10T17:54:17.643Z,19.66
2018-05-10T17:59:19.720Z,19.49
2018-05-10T18:04:21.748Z,19.44
2018-05-10T18:09:23.968Z,19.31
2018-05-10T18:14:25.382Z,19.02
2018-05-10T18:19:27.477Z,19.02
2018-05-10T18:24:29.540Z,18.96
2018-05-10T18:29:31.587Z,19.10
2018-05-10T18:34:32.928Z,19.01
2018-05-10T18:39:34.235Z,18.93
2018-05-10T18:44:36.398Z,18.78
2018-05-10T18:49:38.119Z,18.78
2018-05-10T18:54:40.390Z,18.83
2018-05-10T18:59:41.795Z,18.81
2018-05-10T19:04:43.109Z,18.69
2018-05-10T19:09:44.453Z,18.85
2018-05-10T19:14:47.373Z,18.77
2018-05-10T19:19:48.719Z,18.77
2018-05-10T19:24:50.040Z,18.55
2018-05-10T19:29:51.542Z,18.68
2018-05-10T19:34:53.598Z,18.73
2018-05-10T19:39:54.925Z,18.80
2018-05-10T19:44:56.293Z,18.84
2018-05-10T19:49:58.648Z,18.90
2018-05-10T19:55:00.181Z,18.97
2018-05-10T20:00:01.510Z,18.91
2018-05-10T20:05:02.849Z,18.90
2018-05-10T20:10:04.194Z,18.91
2018-05-10T20:15:06.274Z,18.85
2018-05-10T20:20:07.608Z,18.92
2018-05-10T20:25:09.690Z,18.80
2018-05-10T20:30:11.040Z,18.75
2018-05-10T20:35:12.376Z,18.74
2018-05-10T20:40:13.757Z,18.67
2018-05-10T20:45:15.087Z,18.69
2018-05-10T20:50:16.422Z,18.54
2018-05-10T20:55:18.117Z,18.48
2018-05-10T21:00:19.477Z,18.46
2018-05-10T21:05:20.859Z,18.45
2018-05-10T21:10:22.227Z,18.46
2018-05-10T21:15:24.281Z,18.49
2018-05-10T21:20:25.617Z,18.45
2018-05-10T21:25:27.046Z,18.43
2018-05-10T21:30:28.412Z,18.26
2018-05-10T21:35:29.732Z,18.24
2018-05-10T21:40:31.093Z,18.04
2018-05-10T21:45:32.453Z,18.01
2018-05-10T21:50:33.778Z,17.88
2018-05-10T21:55:35.120Z,17.80
2018-05-10T22:00:37.123Z,17.85
2018-05-10T22:05:38.479Z,17.76
2018-05-10T22:10:39.825Z,17.71
2018-05-10T22:15:41.138Z,17.73
2018-05-10T22:20:42.461Z,17.77
2018-05-10T22:25:43.767Z,17.82
2018-05-10T22:30:45.094Z,17.76
2018-05-10T22:35:47.187Z,17.71
2018-05-10T22:40:48.524Z,17.64
2018-05-10T22:45:49.872Z,17.62
2018-05-10T22:50:52.004Z,17.61
2018-05-10T22:55:53.421Z,17.50
2018-05-10T23:00:54.716Z,17.54
2018-05-10T23:05:56.059Z,17.48
2018-05-10T23:10:58.118Z,17.45
2018-05-10T23:15:59.449Z,17.47
2018-05-10T23:21:01.524Z,17.56
2018-05-10T23:26:02.871Z,17.58
2018-05-10T23:31:04.164Z,17.46
2018-05-10T23:36:05.500Z,17.44
2018-05-10T23:41:06.841Z,17.47
2018-05-10T23:46:08.231Z,17.40
2018-05-10T23:51:09.564Z,17.38
2018-05-10T23:56:10.889Z,17.32
